createdAt,value
2019-06-26T00:03:40.194Z,48.50
2019-06-26T00:08:44.305Z,49.00
2019-06-26T00:13:48.542Z,49.30
2019-06-26T00:18:52.483Z,49.10
2019-06-26T00:23:56.654Z,49.10
2019-06-26T00:29:00.521Z,49.80
2019-06-26T00:34:04.861Z,50.10
2019-06-26T00:39:08.859Z,49.90
2019-06-26T00:44:13.020Z,50.20
2019-06-26T00:49:17.250Z,50.40
2019-06-26T00:54:21.102Z,50.30
2019-06-26T00:59:25.060Z,50.70
2019-06-26T01:04:33.224Z,51.00
2019-06-26T01:09:37.086Z,51.00
2019-06-26T01:14:41.280Z,51.10
2019-06-26T01:19:45.666Z,51.60
2019-06-26T01:24:49.590Z,51.40
2019-06-26T01:29:53.791Z,51.90
2019-06-26T01:34:57.683Z,52.30
2019-06-26T01:40:01.584Z,52.20
2019-06-26T01:45:05.935Z,52.50
2019-06-26T01:50:10.251Z,52.60
2019-06-26T01:55:14.358Z,52.90
2019-06-26T02:00:19.341Z,52.80
2019-06-26T02:05:23.731Z,53.20
2019-06-26T02:10:27.774Z,53.30
2019-06-26T02:15:32.091Z,53.70
2019-06-26T02:20:37.136Z,53.70
2019-06-26T02:25:41.989Z,53.70
2019-06-26T02:30:46.611Z,54.30
2019-06-26T02:35:51.242Z,54.30
2019-06-26T02:40:55.323Z,54.40
2019-06-26T02:45:59.595Z,54.80
2019-06-26T02:51:04.183Z,54.70
2019-06-26T02:56:08.764Z,55.00
2019-06-26T03:01:12.754Z,54.90
2019-06-26T03:06:17.435Z,54.90
2019-06-26T03:11:21.856Z,54.50
2019-06-26T03:16:26.483Z,55.50
2019-06-26T03:21:31.127Z,55.00
2019-06-26T03:26:35.517Z,55.30
2019-06-26T03:31:39.464Z,55.00
2019-06-26T03:36:43.759Z,55.50
2019-06-26T03:41:47.673Z,55.40
2019-06-26T03:46:51.990Z,55.90
2019-06-26T03:51:56.351Z,55.50
2019-06-26T03:57:01.339Z,55.70
2019-06-26T04:02:05.386Z,55.80
2019-06-26T04:07:09.866Z,55.70
2019-06-26T04:12:14.483Z,56.10
2019-06-26T04:17:18.739Z,56.20
2019-06-26T04:22:23.154Z,56.00
2019-06-26T04:27:27.472Z,56.50
2019-06-26T04:32:31.834Z,56.30
2019-06-26T04:37:35.850Z,56.20
2019-06-26T04:42:40.618Z,56.70
2019-06-26T04:47:45.511Z,56.70
2019-06-26T04:52:49.841Z,56.90
2019-06-26T04:57:54.226Z,56.50
2019-06-26T05:02:58.554Z,56.20
2019-06-26T05:08:02.542Z,56.00
2019-06-26T05:13:07.170Z,55.80
2019-06-26T05:18:11.206Z,55.50
2019-06-26T05:23:15.502Z,55.30
2019-06-26T05:28:20.139Z,55.10
2019-06-26T05:33:25.027Z,54.90
2019-06-26T05:38:29.326Z,54.80
2019-06-26T05:43:33.605Z,54.50
2019-06-26T05:48:37.631Z,54.20
2019-06-26T05:53:41.677Z,54.10
2019-06-26T05:58:46.066Z,53.90
2019-06-26T06:03:50.867Z,53.80
2019-06-26T06:08:55.158Z,53.60
2019-06-26T06:13:59.406Z,53.40
2019-06-26T06:19:03.451Z,53.50
2019-06-26T06:24:07.742Z,53.30
2019-06-26T06:29:11.634Z,53.30
2019-06-26T06:34:15.580Z,53.20
2019-06-26T06:39:19.928Z,53.20
2019-06-26T06:44:23.902Z,53.10
2019-06-26T06:49:28.282Z,53.20
2019-06-26T06:54:32.524Z,53.40
2019-06-26T06:59:37.171Z,53.40
2019-06-26T07:04:41.563Z,53.30
2019-06-26T07:09:45.875Z,53.40
2019-06-26T07:14:50.175Z,53.60
2019-06-26T07:19:54.464Z,53.70
2019-06-26T07:24:58.514Z,53.90
2019-06-26T07:30:02.930Z,54.20
2019-06-26T07:35:07.844Z,54.50
2019-06-26T07:40:12.260Z,54.40
2019-06-26T07:45:16.850Z,54.50
2019-06-26T07:50:21.242Z,54.50
2019-06-26T07:55:25.493Z,54.60
2019-06-26T08:00:31.708Z,54.30
2019-06-26T08:05:35.396Z,54.10
2019-06-26T08:10:39.364Z,54.10
2019-06-26T08:15:43.318Z,54.20
2019-06-26T08:21:07.267Z,53.90
2019-06-26T08:25:53.294Z,53.50
2019-06-26T08:30:57.607Z,53.30
2019-06-26T08:36:01.859Z,53.00
2019-06-26T08:41:06.252Z,53.30
2019-06-26T08:46:10.908Z,52.90
2019-06-26T08:51:15.528Z,52.70
2019-06-26T08:56:19.776Z,53.70
2019-06-26T09:01:24.095Z,52.80
2019-06-26T09:06:28.149Z,53.40
2019-06-26T09:11:32.403Z,52.50
2019-06-26T09:16:36.692Z,52.20
2019-06-26T09:21:40.645Z,52.60
2019-06-26T09:26:45.064Z,52.20
2019-06-26T09:31:49.601Z,52.10
2019-06-26T09:36:53.574Z,51.80
2019-06-26T09:41:57.787Z,51.50
2019-06-26T09:47:02.604Z,51.50
2019-06-26T09:52:06.806Z,51.70
2019-06-26T09:57:11.112Z,51.20
2019-06-26T10:02:15.150Z,51.10
2019-06-26T10:07:19.115Z,51.10
2019-06-26T10:12:23.490Z,50.70
2019-06-26T10:17:29.705Z,50.70
2019-06-26T10:22:33.730Z,49.40
2019-06-26T10:27:37.687Z,50.10
2019-06-26T10:32:41.844Z,49.60
2019-06-26T10:37:46.174Z,49.50
2019-06-26T10:42:50.988Z,49.30
2019-06-26T10:47:55.186Z,48.90
2019-06-26T10:53:00.158Z,48.90
2019-06-26T10:58:04.491Z,48.80
2019-06-26T11:03:08.883Z,48.40
2019-06-26T11:08:12.867Z,48.10
2019-06-26T11:13:17.258Z,48.20
2019-06-26T11:18:21.450Z,47.80
2019-06-26T11:23:25.407Z,47.30
2019-06-26T11:28:29.607Z,46.20
2019-06-26T11:33:34.010Z,47.00
2019-06-26T11:38:38.316Z,47.40
2019-06-26T11:43:42.387Z,47.90
2019-06-26T11:48:47.728Z,46.60
2019-06-26T11:53:52.045Z,46.60
2019-06-26T11:58:56.703Z,47.20
2019-06-26T12:04:01.023Z,47.00
2019-06-26T12:09:07.582Z,47.30
2019-06-26T12:14:11.938Z,47.00
2019-06-26T12:19:19.087Z,46.30
2019-06-26T12:24:21.919Z,47.00
2019-06-26T12:29:26.536Z,47.00
2019-06-26T12:34:30.764Z,46.00
2019-06-26T12:39:35.260Z,46.10
2019-06-26T12:44:39.232Z,45.60
2019-06-26T12:49:43.274Z,46.50
2019-06-26T12:54:47.581Z,46.30
2019-06-26T12:59:57.396Z,46.60
2019-06-26T13:04:57.581Z,46.70
2019-06-26T13:10:01.601Z,46.70
2019-06-26T13:15:06.039Z,46.50
2019-06-26T13:20:10.974Z,45.90
2019-06-26T13:25:16.093Z,46.40
2019-06-26T13:30:29.478Z,45.70
2019-06-26T13:35:34.023Z,46.10
2019-06-26T13:40:40.929Z,46.00
2019-06-26T13:45:43.902Z,46.20
2019-06-26T13:50:47.919Z,44.90
2019-06-26T13:55:51.981Z,45.20
2019-06-26T14:00:56.427Z,44.90
2019-06-26T14:06:00.670Z,45.50
2019-06-26T14:11:07.405Z,45.90
2019-06-26T14:16:10.798Z,45.30
2019-06-26T14:21:25.167Z,44.50
2019-06-26T14:26:20.503Z,45.00
2019-06-26T14:31:24.812Z,45.30
2019-06-26T14:36:28.838Z,45.10
2019-06-26T14:41:33.391Z,45.60
2019-06-26T14:46:37.338Z,45.50
2019-06-26T14:51:47.189Z,45.60
2019-06-26T14:56:47.730Z,45.20
2019-06-26T15:01:51.701Z,45.10
2019-06-26T15:06:55.713Z,45.10
2019-06-26T15:12:00.039Z,44.70
2019-06-26T15:17:04.091Z,44.80
2019-06-26T15:22:08.181Z,44.20
2019-06-26T15:27:12.193Z,44.40
2019-06-26T15:32:16.423Z,43.70
2019-06-26T15:37:20.755Z,44.40
2019-06-26T15:42:25.334Z,44.50
2019-06-26T15:47:29.548Z,44.40
2019-06-26T15:52:33.486Z,44.40
2019-06-26T15:57:37.990Z,45.30
2019-06-26T16:02:42.282Z,45.20
2019-06-26T16:07:46.456Z,45.50
2019-06-26T16:12:50.344Z,45.50
2019-06-26T16:18:19.736Z,45.30
2019-06-26T16:23:24.058Z,45.80
2019-06-26T16:28:28.954Z,45.50
2019-06-26T16:33:33.896Z,45.80
2019-06-26T16:38:38.188Z,45.60
2019-06-26T16:43:42.370Z,45.30
2019-06-26T16:48:46.648Z,45.50
2019-06-26T16:53:50.991Z,45.10
2019-06-26T16:58:55.462Z,45.30
2019-06-26T17:03:59.490Z,45.10
2019-06-26T17:09:03.895Z,45.20
2019-06-26T17:14:07.849Z,45.50
2019-06-26T17:19:12.188Z,45.50
2019-06-26T17:24:16.146Z,45.50
2019-06-26T17:29:20.187Z,45.60
2019-06-26T17:34:27.173Z,45.40
2019-06-26T17:39:30.115Z,45.30
2019-06-26T17:44:34.247Z,45.10
2019-06-26T17:49:38.287Z,45.60
2019-06-26T17:54:42.799Z,45.70
2019-06-26T17:59:47.130Z,45.50
2019-06-26T18:04:51.107Z,45.10
2019-06-26T18:09:55.739Z,44.40
2019-06-26T18:15:00.359Z,44.90
2019-06-26T18:20:04.847Z,45.20
2019-06-26T18:25:09.610Z,45.10
2019-06-26T18:30:14.016Z,45.40
2019-06-26T18:35:18.647Z,45.30
2019-06-26T18:40:22.932Z,45.10
2019-06-26T18:45:26.926Z,46.00
2019-06-26T18:50:30.878Z,45.00
2019-06-26T18:55:35.487Z,45.30
2019-06-26T19:00:39.849Z,45.30
2019-06-26T19:05:44.215Z,45.10
2019-06-26T19:10:48.433Z,45.50
2019-06-26T19:15:52.752Z,45.20
2019-06-26T19:20:57.062Z,45.20
2019-06-26T19:26:01.409Z,44.80
2019-06-26T19:31:05.469Z,45.20
2019-06-26T19:36:09.420Z,44.40
2019-06-26T19:41:14.077Z,45.00
2019-06-26T19:46:19.098Z,45.80
2019-06-26T19:51:23.019Z,46.10
2019-06-26T19:56:27.730Z,46.20
2019-06-26T20:01:32.051Z,45.70
2019-06-26T20:06:36.431Z,45.70
2019-06-26T20:11:40.379Z,45.60
2019-06-26T20:16:45.093Z,46.30
2019-06-26T20:21:49.382Z,46.40
2019-06-26T20:26:53.617Z,46.70
2019-06-26T20:31:57.855Z,47.10
2019-06-26T20:37:02.168Z,47.30
2019-06-26T20:42:06.527Z,47.40
2019-06-26T20:47:10.542Z,46.90
2019-06-26T20:52:14.882Z,47.40
2019-06-26T20:57:19.228Z,47.70
2019-06-26T21:02:23.458Z,47.70
2019-06-26T21:07:27.931Z,47.80
2019-06-26T21:12:31.891Z,47.90
2019-06-26T21:17:35.883Z,48.10
2019-06-26T21:22:40.398Z,48.10
2019-06-26T21:27:44.489Z,48.30
2019-06-26T21:32:49.110Z,48.20
2019-06-26T21:37:53.249Z,48.20
2019-06-26T21:42:57.135Z,48.30
2019-06-26T21:48:01.665Z,48.30
2019-06-26T21:53:05.612Z,48.40
2019-06-26T21:58:09.873Z,48.50
2019-06-26T22:03:13.891Z,48.50
2019-06-26T22:08:18.207Z,48.50
2019-06-26T22:13:22.390Z,48.60
2019-06-26T22:18:26.708Z,48.60
2019-06-26T22:23:31.075Z,48.50
2019-06-26T22:28:35.089Z,48.60
2019-06-26T22:33:39.387Z,48.70
2019-06-26T22:38:43.634Z,48.60
2019-06-26T22:43:47.939Z,48.70
2019-06-26T22:48:52.209Z,48.70
2019-06-26T22:53:56.478Z,48.60
2019-06-26T22:59:01.091Z,48.70
2019-06-26T23:04:05.309Z,48.60
2019-06-26T23:09:09.288Z,48.60
2019-06-26T23:14:13.367Z,48.60
2019-06-26T23:19:17.518Z,48.70
2019-06-26T23:24:21.748Z,48.70
2019-06-26T23:29:26.039Z,48.60
2019-06-26T23:34:30.268Z,48.50
2019-06-26T23:39:34.531Z,48.60
2019-06-26T23:44:39.224Z,48.60
2019-06-26T23:49:44.071Z,48.60
2019-06-26T23:54:47.964Z,48.60
2019-06-26T23:59:51.836Z,48.60
